Time;durP1;ratioP1;P1;durP2;ratioP2;P2;SDS_P1;SDS_P2;PMS_P1;PMS_P2;Temp;Humidity;BMP_temperature;BMP_pressure;BME280_temperature;BME280_humidity;BME280_pressure;Samples;Min_cycle;Max_cycle;Signal;HPM_P1;HPM_P2
2021/12/27 00:02:17;;;;;;;8.95;5.43;;;;;;;10.11;65.61;95991.22;4918260;28;20032;-79
2021/12/27 00:04:43;;;;;;;9.63;6.05;;;;;;;10.12;65.52;95990.91;4887545;28;20040;-78
2021/12/27 00:07:10;;;;;;;11.98;6.72;;;;;;;10.15;65.87;95992.22;4916850;28;20029;-78
2021/12/27 00:09:36;;;;;;;10.88;6.95;;;;;;;10.23;65.70;95991.63;4902456;28;20034;-78
2021/12/27 00:12:02;;;;;;;9.25;5.55;;;;;;;10.30;65.49;95992.09;4902148;28;20219;-79
2021/12/27 00:14:27;;;;;;;11.35;5.93;;;;;;;10.30;65.21;95992.09;4909956;28;20061;-78
2021/12/27 00:16:53;;;;;;;9.63;5.65;;;;;;;10.23;65.51;95986.44;4895569;28;20912;-79
2021/12/27 00:19:18;;;;;;;11.75;6.63;;;;;;;10.21;65.12;95985.13;4910763;28;20115;-78
2021/12/27 00:21:44;;;;;;;10.77;6.07;;;;;;;10.20;65.71;95984.38;4918151;28;20030;-78
2021/12/27 00:24:09;;;;;;;14.95;7.47;;;;;;;10.22;65.60;95974.47;4887602;28;20057;-78
2021/12/27 00:26:34;;;;;;;9.57;6.00;;;;;;;10.26;65.81;95988.50;4887799;28;20767;-79
2021/12/27 00:29:00;;;;;;;11.88;6.97;;;;;;;10.38;65.62;95976.97;4896561;28;20044;-78
2021/12/27 00:31:25;;;;;;;10.63;6.45;;;;;;;10.43;65.48;95982.16;4918263;28;20225;-79
2021/12/27 00:33:50;;;;;;;10.32;6.70;;;;;;;10.48;65.83;95977.69;4887383;28;20050;-78
2021/12/27 00:36:16;;;;;;;11.73;6.95;;;;;;;10.53;65.56;95978.69;4902027;28;20602;-78
2021/12/27 00:38:41;;;;;;;11.45;6.53;;;;;;;10.48;65.51;95976.91;4918749;28;20034;-79
2021/12/27 00:41:06;;;;;;;13.70;8.25;;;;;;;10.52;66.38;95977.94;4901693;28;20049;-78
2021/12/27 00:43:32;;;;;;;13.60;7.90;;;;;;;10.54;65.43;95973.22;4903078;28;20759;-78
2021/12/27 00:45:57;;;;;;;15.63;7.82;;;;;;;10.52;65.39;95972.72;4917916;28;20745;-78
2021/12/27 00:48:24;;;;;;;13.45;7.57;;;;;;;10.56;65.86;95973.72;4902408;28;20030;-78
2021/12/27 00:50:49;;;;;;;13.60;7.80;;;;;;;10.55;65.78;95969.56;4891477;28;20083;-79
2021/12/27 00:53:15;;;;;;;12.15;6.75;;;;;;;10.62;65.49;95967.41;4923543;28;20720;-79
2021/12/27 00:55:40;;;;;;;10.52;7.03;;;;;;;10.64;65.37;95970.53;4917165;28;20036;-78
2021/12/27 00:58:06;;;;;;;11.38;6.55;;;;;;;10.59;65.52;95967.19;4933250;28;20115;-78
2021/12/27 01:00:31;;;;;;;10.85;6.75;;;;;;;10.66;65.60;95972.88;4917278;28;20026;-79
2021/12/27 01:02:57;;;;;;;12.10;6.93;;;;;;;10.73;65.75;95975.13;4920276;28;20036;-78
2021/12/27 01:05:24;;;;;;;13.10;7.32;;;;;;;10.67;65.57;95977.78;4917291;28;20292;-79
2021/12/27 01:07:50;;;;;;;12.55;8.20;;;;;;;10.77;65.60;95970.94;4896884;28;20028;-78
2021/12/27 01:10:31;;;;;;;13.80;7.60;;;;;;;10.89;65.49;95970.56;4918893;28;20180;-79
2021/12/27 01:13:06;;;;;;;11.52;7.03;;;;;;;10.95;65.33;95969.44;4918414;28;20029;-78
2021/12/27 01:18:04;;;;;;;18.00;7.93;;;;;;;10.86;65.50;95966.69;4914736;28;20231;-79
2021/12/27 01:20:30;;;;;;;13.00;7.35;;;;;;;10.89;65.75;95968.72;4901918;28;20029;-78
2021/12/27 01:22:55;;;;;;;11.23;6.38;;;;;;;10.90;65.87;95975.50;4916407;28;20033;-78
2021/12/27 01:25:22;;;;;;;11.90;7.43;;;;;;;10.87;65.89;95968.25;4901165;28;20884;-79
2021/12/27 01:27:48;;;;;;;13.07;7.35;;;;;;;10.90;65.65;95965.09;4916817;28;20130;-79
2021/12/27 01:30:16;;;;;;;13.82;7.30;;;;;;;10.86;65.28;95966.69;4900788;28;20124;-79
2021/12/27 01:32:48;;;;;;;13.23;7.80;;;;;;;10.95;65.95;95959.84;4905549;28;20036;-79
2021/12/27 01:35:14;;;;;;;13.80;7.57;;;;;;;10.98;65.53;95961.09;4901218;28;20721;-79
2021/12/27 01:37:39;;;;;;;11.43;6.95;;;;;;;11.02;65.71;95960.28;4899749;28;20112;-79
2021/12/27 01:40:07;;;;;;;14.98;7.80;;;;;;;11.03;65.89;95963.66;4902224;28;20029;-78
2021/12/27 01:42:32;;;;;;;12.52;7.35;;;;;;;11.10;66.10;95964.09;4901401;28;20030;-78
2021/12/27 01:44:58;;;;;;;12.30;7.47;;;;;;;11.16;65.27;95964.81;4883913;28;20033;-79
2021/12/27 01:47:23;;;;;;;11.82;7.45;;;;;;;11.12;66.05;95963.81;4899624;28;20105;-78
2021/12/27 01:49:49;;;;;;;12.32;6.88;;;;;;;11.16;66.20;95955.16;4903502;28;20030;-78
2021/12/27 01:52:14;;;;;;;14.27;7.28;;;;;;;11.17;65.82;95959.34;4901781;28;20026;-79
2021/12/27 01:54:40;;;;;;;13.63;7.85;;;;;;;11.23;65.73;95963.41;4913227;28;20042;-79
2021/12/27 01:57:05;;;;;;;17.05;7.93;;;;;;;11.17;66.07;95958.53;4916251;28;20029;-78
2021/12/27 01:59:31;;;;;;;16.08;8.85;;;;;;;11.10;66.37;95958.09;4913287;28;20030;-79
2021/12/27 02:01:57;;;;;;;14.05;8.25;;;;;;;11.27;66.02;95958.44;4885488;28;20026;-79
2021/12/27 02:04:22;;;;;;;12.32;7.28;;;;;;;11.21;66.09;95949.91;4900613;28;20069;-79
2021/12/27 02:06:48;;;;;;;14.20;7.80;;;;;;;11.36;65.55;95956.78;4917296;28;20175;-79
2021/12/27 02:09:13;;;;;;;12.27;7.30;;;;;;;11.39;65.53;95956.19;4897020;28;20029;-79
2021/12/27 02:11:39;;;;;;;10.77;6.82;;;;;;;11.36;65.76;95943.75;4903495;28;20030;-78
2021/12/27 02:14:05;;;;;;;12.23;7.03;;;;;;;11.31;65.91;95941.19;4916775;28;20662;-79
2021/12/27 02:16:32;;;;;;;13.18;7.60;;;;;;;11.22;66.26;95946.25;4899112;28;20041;-78
2021/12/27 02:18:57;;;;;;;14.07;7.75;;;;;;;11.41;65.52;95941.06;4903713;28;20051;-79
2021/12/27 02:21:24;;;;;;;12.88;7.15;;;;;;;11.34;65.94;95948.44;4894610;28;20779;-79
2021/12/27 02:23:52;;;;;;;12.70;6.93;;;;;;;11.34;66.35;95956.25;4917321;28;20757;-79
2021/12/27 02:26:18;;;;;;;14.38;7.35;;;;;;;11.48;65.64;95950.38;4901931;28;20772;-78
2021/12/27 02:28:44;;;;;;;11.38;7.20;;;;;;;11.49;65.48;95951.94;4914096;28;20057;-79
2021/12/27 02:31:09;;;;;;;13.07;6.55;;;;;;;11.51;65.40;95947.97;4900446;28;20051;-78
2021/12/27 02:33:36;;;;;;;10.85;6.38;;;;;;;11.47;65.74;95947.00;4922795;28;20034;-79
2021/12/27 02:36:02;;;;;;;12.35;7.13;;;;;;;11.42;65.59;95936.63;4918229;28;20034;-80
2021/12/27 02:38:30;;;;;;;11.70;6.78;;;;;;;11.36;65.00;95937.75;4901214;28;20125;-79
2021/12/27 02:40:56;;;;;;;13.60;6.50;;;;;;;11.43;65.37;95938.97;4902919;28;20037;-79
2021/12/27 02:43:24;;;;;;;11.35;7.03;;;;;;;11.43;65.12;95938.97;4893567;28;20194;-79
2021/12/27 02:45:59;;;;;;;11.35;7.07;;;;;;;11.30;65.89;95938.88;4912079;28;20393;-80
2021/12/27 02:48:28;;;;;;;10.93;6.32;;;;;;;11.50;65.24;95936.00;4918981;28;20215;-79
2021/12/27 02:50:55;;;;;;;10.73;5.97;;;;;;;11.51;65.23;95928.97;4896377;28;20202;-79
2021/12/27 02:53:22;;;;;;;10.25;6.43;;;;;;;11.51;65.26;95923.75;4914334;28;20206;-79
2021/12/27 02:55:49;;;;;;;11.40;6.50;;;;;;;11.55;65.19;95925.53;4880825;28;20643;-79
2021/12/27 02:58:15;;;;;;;14.02;6.80;;;;;;;11.50;65.49;95922.97;4900313;28;20312;-79
2021/12/27 03:00:46;;;;;;;9.80;6.43;;;;;;;11.42;65.37;95932.19;4915164;28;20214;-79
2021/12/27 03:03:11;;;;;;;9.07;5.80;;;;;;;11.55;65.29;95932.53;4913006;28;20360;-79
2021/12/27 03:05:37;;;;;;;10.60;5.80;;;;;;;11.59;65.37;95930.94;4879900;28;20758;-79
2021/12/27 03:08:03;;;;;;;12.18;7.05;;;;;;;11.50;64.59;95938.63;4912525;28;20202;-79
2021/12/27 03:10:31;;;;;;;11.32;6.47;;;;;;;11.48;64.83;95934.72;4919792;28;20313;-79
2021/12/27 03:12:58;;;;;;;11.70;6.32;;;;;;;11.48;65.42;95924.31;4896008;28;20316;-79
2021/12/27 03:15:24;;;;;;;12.55;6.35;;;;;;;11.48;65.44;95924.31;4912793;28;20206;-79
2021/12/27 03:17:51;;;;;;;11.32;6.50;;;;;;;11.41;65.49;95935.06;4892110;28;20151;-80
2021/12/27 03:20:18;;;;;;;9.98;6.30;;;;;;;11.52;65.49;95926.06;4896272;28;20167;-79
2021/12/27 03:22:45;;;;;;;10.15;5.95;;;;;;;11.41;65.72;95929.84;4896272;28;20695;-79
2021/12/27 03:25:13;;;;;;;12.10;6.30;;;;;;;11.44;65.87;95931.91;4930079;28;20291;-80
2021/12/27 03:27:40;;;;;;;12.23;6.60;;;;;;;11.57;65.09;95933.84;4912572;28;20166;-79
2021/12/27 03:30:11;;;;;;;10.63;6.05;;;;;;;11.47;64.98;95931.34;4880316;28;20292;-79
2021/12/27 03:32:36;;;;;;;10.10;6.15;;;;;;;11.60;65.52;95929.88;4896211;28;20674;-79
2021/12/27 03:35:10;;;;;;;12.30;7.47;;;;;;;11.48;65.33;95935.53;4913202;28;20143;-79
2021/12/27 03:37:37;;;;;;;11.93;6.05;;;;;;;11.51;65.59;95924.50;4896845;28;20249;-80
2021/12/27 03:40:04;;;;;;;12.07;6.68;;;;;;;11.50;65.53;95911.75;4896226;28;20265;-79
2021/12/27 03:42:30;;;;;;;10.63;6.47;;;;;;;11.51;65.75;95908.13;4895044;28;20573;-79
2021/12/27 03:44:55;;;;;;;9.20;6.32;;;;;;;11.60;65.32;95906.41;4879784;28;20280;-79
2021/12/27 03:47:20;;;;;;;8.70;5.85;;;;;;;11.61;65.29;95918.41;4911793;28;20660;-79
2021/12/27 03:49:46;;;;;;;7.10;4.55;;;;;;;11.61;65.53;95913.94;4911446;28;20371;-79
2021/12/27 03:52:11;;;;;;;8.85;5.38;;;;;;;11.66;65.53;95912.34;4898466;28;20215;-79
2021/12/27 03:54:36;;;;;;;8.32;5.07;;;;;;;11.64;65.57;95911.88;4895838;28;20269;-79
2021/12/27 03:57:02;;;;;;;8.07;4.80;;;;;;;11.68;65.54;95913.59;4879204;28;20276;-79
2021/12/27 03:59:50;;;;;;;9.77;5.18;;;;;;;11.68;65.60;95918.81;4894740;28;20197;-79
2021/12/27 04:02:18;;;;;;;8.07;5.18;;;;;;;11.67;65.57;95906.84;4914482;28;20186;-79
2021/12/27 04:04:44;;;;;;;7.50;4.70;;;;;;;11.67;65.62;95912.06;4929431;28;20292;-79
2021/12/27 04:07:10;;;;;;;7.43;4.25;;;;;;;11.69;65.42;95904.75;4895392;28;20132;-79
2021/12/27 04:09:36;;;;;;;5.93;3.97;;;;;;;11.72;65.43;95901.56;4895298;28;20295;-79
2021/12/27 04:12:02;;;;;;;7.03;4.55;;;;;;;11.69;65.23;95896.91;4879497;28;20198;-79
2021/12/27 04:14:28;;;;;;;7.07;4.75;;;;;;;11.77;65.42;95905.91;4895603;28;20703;-79
2021/12/27 04:16:54;;;;;;;8.23;4.60;;;;;;;11.69;65.44;95899.53;4914810;28;20183;-79
2021/12/27 04:19:19;;;;;;;6.85;4.25;;;;;;;11.68;65.20;95897.97;4911422;28;20623;-79
2021/12/27 04:21:45;;;;;;;7.07;4.30;;;;;;;11.65;65.52;95902.97;4910874;28;20198;-79
2021/12/27 04:24:10;;;;;;;5.63;3.83;;;;;;;11.64;65.53;95901.44;4893200;28;20217;-79
2021/12/27 04:26:36;;;;;;;5.20;3.90;;;;;;;11.65;65.40;95903.72;4893205;28;20220;-79
2021/12/27 04:29:02;;;;;;;7.72;3.65;;;;;;;11.66;65.82;95900.09;4893255;28;20261;-79
2021/12/27 04:31:28;;;;;;;7.20;3.90;;;;;;;11.64;65.61;95901.44;4910247;28;20221;-79
2021/12/27 04:33:53;;;;;;;5.10;3.25;;;;;;;11.65;65.64;95895.16;4898679;28;20175;-79
2021/12/27 04:36:18;;;;;;;5.65;3.45;;;;;;;11.63;65.62;95890.22;4914825;28;20222;-79
2021/12/27 04:38:44;;;;;;;5.47;2.88;;;;;;;11.54;65.25;95882.25;4911056;28;20444;-79
2021/12/27 04:41:11;;;;;;;5.35;2.72;;;;;;;11.56;65.50;95880.13;4878874;28;20285;-79
2021/12/27 04:43:38;;;;;;;5.00;3.40;;;;;;;11.62;65.62;95880.84;4900669;28;20763;-79
2021/12/27 04:46:04;;;;;;;4.78;2.85;;;;;;;11.64;65.70;95885.78;4911021;28;20202;-79
2021/12/27 04:48:30;;;;;;;4.68;2.60;;;;;;;11.64;65.53;95878.75;4878569;28;20250;-79
2021/12/27 04:50:56;;;;;;;5.22;3.15;;;;;;;11.65;65.59;95880.28;4893897;28;20068;-79
2021/12/27 04:53:21;;;;;;;5.07;2.90;;;;;;;11.72;65.49;95888.53;4895096;28;20194;-79
2021/12/27 04:55:46;;;;;;;5.28;3.10;;;;;;;11.74;65.52;95885.66;4893788;28;20206;-79
2021/12/27 04:58:15;;;;;;;7.03;4.20;;;;;;;11.67;65.12;95885.19;4914215;28;20284;-79
2021/12/27 05:00:41;;;;;;;6.50;3.80;;;;;;;11.79;64.95;95883.72;4910592;28;20358;-79
2021/12/27 05:03:06;;;;;;;6.25;3.67;;;;;;;11.76;65.22;95881.69;4894672;28;20261;-80
2021/12/27 05:05:32;;;;;;;6.05;3.40;;;;;;;11.74;65.38;95881.19;4877012;28;20185;-79
2021/12/27 05:07:59;;;;;;;5.10;3.80;;;;;;;11.64;65.64;95886.56;4909577;28;20921;-80
2021/12/27 05:10:28;;;;;;;6.32;3.97;;;;;;;11.75;65.37;95877.50;4894326;28;20175;-80
2021/12/27 05:12:54;;;;;;;6.38;3.80;;;;;;;11.72;65.18;95875.50;4895250;28;20178;-79
2021/12/27 05:15:20;;;;;;;7.18;4.75;;;;;;;11.79;65.26;95875.91;4893988;28;20686;-79
2021/12/27 05:17:45;;;;;;;6.40;4.10;;;;;;;11.75;65.32;95876.75;4897826;28;20198;-80
2021/12/27 05:20:11;;;;;;;6.70;4.22;;;;;;;11.81;65.32;95875.63;4894000;28;20205;-80
2021/12/27 05:22:37;;;;;;;5.82;4.50;;;;;;;11.79;65.21;95877.75;4909928;28;20276;-80
2021/12/27 05:25:04;;;;;;;7.20;4.38;;;;;;;11.85;65.31;95860.19;4896941;28;20229;-80
2021/12/27 05:27:29;;;;;;;7.25;4.20;;;;;;;11.91;65.16;95864.28;4910200;28;20220;-79
2021/12/27 05:29:55;;;;;;;4.50;3.70;;;;;;;11.88;64.82;95865.59;4878276;28;20193;-79
2021/12/27 05:32:20;;;;;;;5.97;3.65;;;;;;;11.84;65.06;95859.41;4909778;28;20273;-79
2021/12/27 05:34:46;;;;;;;6.05;4.10;;;;;;;11.88;64.82;95849.97;4893931;28;20253;-80
2021/12/27 05:37:14;;;;;;;6.22;4.13;;;;;;;11.80;65.22;95848.75;4893886;28;20245;-80
2021/12/27 05:39:40;;;;;;;5.72;3.33;;;;;;;11.89;64.96;95845.50;4878056;28;20290;-79
2021/12/27 05:42:06;;;;;;;4.72;3.30;;;;;;;11.94;64.68;95848.84;4893684;28;20607;-79
2021/12/27 05:44:31;;;;;;;5.22;3.75;;;;;;;11.93;65.06;95843.94;4892647;28;20263;-79
2021/12/27 05:46:57;;;;;;;5.82;3.58;;;;;;;11.98;65.08;95838.63;4877909;28;20396;-80
2021/12/27 05:49:23;;;;;;;5.20;3.42;;;;;;;11.96;65.05;95840.72;4909781;28;20114;-80
2021/12/27 05:51:48;;;;;;;6.47;3.47;;;;;;;12.03;64.85;95837.75;4893374;28;20280;-80
2021/12/27 05:54:14;;;;;;;4.72;3.58;;;;;;;11.92;65.04;95839.75;4893493;28;20591;-79
2021/12/27 05:56:41;;;;;;;4.40;3.40;;;;;;;11.85;64.85;95836.72;4927821;28;20138;-79
2021/12/27 05:59:07;;;;;;;5.82;3.58;;;;;;;11.94;65.00;95837.63;4909337;28;20252;-80
2021/12/27 06:01:32;;;;;;;5.18;3.35;;;;;;;12.02;65.41;95836.97;4892478;28;20221;-79
2021/12/27 06:04:00;;;;;;;5.75;2.92;;;;;;;11.92;65.06;95835.31;4892900;28;20652;-79
2021/12/27 06:06:26;;;;;;;5.53;3.00;;;;;;;12.01;64.94;95837.25;4893735;28;20670;-80
2021/12/27 06:08:52;;;;;;;5.05;3.75;;;;;;;12.05;65.05;95831.19;4889525;28;20202;-79
2021/12/27 06:11:18;;;;;;;4.75;3.60;;;;;;;12.04;64.91;95827.03;4890746;28;20221;-80
2021/12/27 06:13:43;;;;;;;5.70;3.42;;;;;;;12.10;65.21;95835.56;4892474;28;20699;-79
2021/12/27 06:16:09;;;;;;;5.00;3.40;;;;;;;12.03;65.11;95832.53;4908638;28;20280;-79
2021/12/27 06:18:35;;;;;;;4.53;3.22;;;;;;;12.04;65.61;95829.63;4880678;28;20290;-79
2021/12/27 06:21:01;;;;;;;4.40;3.13;;;;;;;12.12;64.84;95823.78;4891767;28;20213;-79
2021/12/27 06:23:26;;;;;;;5.53;3.42;;;;;;;12.15;64.80;95815.38;4893087;28;20198;-79
2021/12/27 06:25:52;;;;;;;4.65;3.05;;;;;;;12.12;64.98;95820.41;4909162;28;20228;-79
2021/12/27 06:28:17;;;;;;;4.47;2.95;;;;;;;12.07;65.31;95816.03;4909157;28;20313;-79
2021/12/27 06:30:43;;;;;;;3.88;2.55;;;;;;;12.12;65.26;95812.56;4891446;28;20209;-79
2021/12/27 06:33:10;;;;;;;5.47;3.10;;;;;;;12.11;65.02;95809.16;4905151;28;20250;-79
2021/12/27 06:35:36;;;;;;;4.35;2.67;;;;;;;12.14;65.15;95811.19;4909322;28;20198;-79
2021/12/27 06:38:01;;;;;;;4.22;2.65;;;;;;;12.08;65.07;95825.41;4893144;28;20652;-79
2021/12/27 06:40:27;;;;;;;3.40;2.70;;;;;;;12.11;65.13;95822.22;4907720;28;20287;-79
2021/12/27 06:42:52;;;;;;;4.35;2.85;;;;;;;12.11;65.19;95827.44;4892712;28;20844;-79
2021/12/27 06:45:17;;;;;;;4.50;2.70;;;;;;;11.98;65.33;95820.38;4909421;28;20729;-79
2021/12/27 06:47:43;;;;;;;3.50;2.47;;;;;;;12.01;65.59;95829.44;4877121;28;20213;-79
2021/12/27 06:50:10;;;;;;;3.42;2.70;;;;;;;12.07;64.94;95823.84;4890237;28;20195;-79
2021/12/27 06:52:35;;;;;;;4.30;2.88;;;;;;;12.02;64.94;95825.78;4909929;28;20660;-79
2021/12/27 06:55:01;;;;;;;3.17;2.30;;;;;;;12.09;64.42;95816.50;4893137;28;20185;-79
2021/12/27 06:57:26;;;;;;;3.00;2.50;;;;;;;12.12;65.21;95823.00;4892812;28;20246;-79
2021/12/27 06:59:51;;;;;;;3.65;2.25;;;;;;;12.11;65.07;95824.81;4877260;28;20288;-79
2021/12/27 07:02:17;;;;;;;2.90;2.00;;;;;;;12.12;64.88;95831.59;4908317;28;20616;-79
2021/12/27 07:04:42;;;;;;;1.90;1.70;;;;;;;12.09;64.94;95823.56;4877193;28;20348;-79
2021/12/27 07:07:11;;;;;;;3.00;1.90;;;;;;;11.99;65.35;95821.91;4890807;28;20182;-78
2021/12/27 07:09:36;;;;;;;2.78;1.98;;;;;;;12.09;65.12;95815.75;4927346;28;20167;-79
2021/12/27 07:12:02;;;;;;;2.63;2.28;;;;;;;12.01;64.62;95817.16;4925882;28;20639;-78
2021/12/27 07:14:28;;;;;;;2.85;2.08;;;;;;;12.04;64.70;95821.81;4892841;28;20288;-79
2021/12/27 07:16:53;;;;;;;2.83;2.17;;;;;;;11.94;65.20;95816.75;4876761;28;20620;-81
2021/12/27 07:19:18;;;;;;;2.25;1.92;;;;;;;12.06;65.25;95817.06;4908100;28;20189;-79
2021/12/27 07:21:44;;;;;;;2.53;1.70;;;;;;;12.02;64.60;95813.50;4925785;28;20265;-80
2021/12/27 07:24:09;;;;;;;3.55;2.40;;;;;;;12.06;65.26;95824.91;4892583;28;20198;-79
2021/12/27 07:26:35;;;;;;;3.75;2.85;;;;;;;12.04;65.09;95819.19;4892459;28;20214;-79
2021/12/27 07:29:00;;;;;;;2.05;1.70;;;;;;;12.10;64.95;95828.50;4892129;28;20234;-79
2021/12/27 07:31:26;;;;;;;3.13;2.20;;;;;;;12.13;65.10;95814.88;4909185;28;20398;-79
2021/12/27 07:33:52;;;;;;;2.75;2.00;;;;;;;12.15;64.85;95831.03;4912011;28;20217;-78
2021/12/27 07:36:18;;;;;;;2.53;2.03;;;;;;;12.17;65.03;95821.06;4911416;28;20277;-79
2021/12/27 07:38:44;;;;;;;4.15;2.22;;;;;;;12.19;65.41;95820.78;4895483;28;20166;-79
2021/12/27 07:41:10;;;;;;;3.28;2.15;;;;;;;12.16;65.31;95824.72;4895505;28;20275;-79
2021/12/27 07:43:35;;;;;;;2.05;1.70;;;;;;;12.16;65.11;95827.34;4912438;28;20257;-80
2021/12/27 07:46:01;;;;;;;2.45;1.90;;;;;;;12.17;65.27;95828.91;4892789;28;20198;-78
2021/12/27 07:48:26;;;;;;;1.83;1.50;;;;;;;12.23;65.03;95820.97;4911810;28;20337;-79
2021/12/27 07:50:54;;;;;;;2.20;1.50;;;;;;;12.22;65.02;95819.41;4893868;28;20324;-79
2021/12/27 07:53:20;;;;;;;2.40;1.98;;;;;;;12.27;64.81;95820.13;4927020;28;20245;-79
2021/12/27 07:55:45;;;;;;;1.95;1.60;;;;;;;12.21;64.82;95808.22;4907252;28;20285;-79
2021/12/27 07:58:11;;;;;;;2.83;1.63;;;;;;;12.17;65.27;95810.63;4911094;28;20244;-79
2021/12/27 08:00:36;;;;;;;2.70;1.63;;;;;;;12.18;65.21;95803.56;4895142;28;20198;-79
2021/12/27 08:03:01;;;;;;;3.75;1.70;;;;;;;12.15;65.14;95799.72;4912019;28;20760;-79
2021/12/27 08:05:27;;;;;;;4.30;1.75;;;;;;;12.20;65.25;95806.69;4929081;28;20336;-79
2021/12/27 08:07:53;;;;;;;1.90;1.60;;;;;;;12.15;64.84;95810.16;4879995;28;20194;-79
2021/12/27 08:10:18;;;;;;;2.67;1.60;;;;;;;12.21;65.09;95807.47;4910959;28;20257;-79
2021/12/27 08:12:44;;;;;;;3.50;2.13;;;;;;;12.23;65.01;95806.09;4911477;28;20267;-79
2021/12/27 08:15:11;;;;;;;3.25;1.60;;;;;;;12.16;65.17;95810.91;4895649;28;20248;-79
2021/12/27 08:17:37;;;;;;;1.80;1.38;;;;;;;12.16;65.08;95803.09;4879306;28;20155;-79
2021/12/27 08:20:04;;;;;;;2.78;1.77;;;;;;;12.12;65.67;95805.50;4909427;28;20296;-79
2021/12/27 08:22:29;;;;;;;3.00;1.35;;;;;;;12.32;64.60;95801.78;4879454;28;20201;-79
2021/12/27 08:24:54;;;;;;;2.20;1.30;;;;;;;12.26;64.27;95807.38;4892125;28;20188;-79
2021/12/27 08:27:22;;;;;;;1.52;1.42;;;;;;;12.28;64.88;95805.22;4899566;28;20256;-79
2021/12/27 08:29:48;;;;;;;2.17;1.20;;;;;;;12.37;64.84;95808.72;4894314;28;20174;-78
2021/12/27 08:32:13;;;;;;;2.85;1.50;;;;;;;12.36;64.66;95801.97;4910897;28;20236;-79
2021/12/27 08:34:39;;;;;;;1.25;0.95;;;;;;;12.40;64.75;95809.97;4911312;28;20214;-78
2021/12/27 08:37:05;;;;;;;2.03;1.42;;;;;;;12.41;64.80;95804.47;4910926;28;20299;-79
2021/12/27 08:39:31;;;;;;;2.08;0.98;;;;;;;12.40;65.00;95808.16;4909757;28;20217;-78
2021/12/27 08:41:56;;;;;;;1.60;1.02;;;;;;;12.37;65.10;95806.09;4910476;28;20264;-79
2021/12/27 08:44:22;;;;;;;2.15;1.40;;;;;;;12.40;64.67;95809.97;4909224;28;20245;-79
2021/12/27 08:46:48;;;;;;;1.80;1.27;;;;;;;12.40;64.70;95813.38;4894497;28;20622;-78
2021/12/27 08:49:13;;;;;;;1.85;1.10;;;;;;;12.39;64.65;95811.84;4879246;28;20219;-79
2021/12/27 08:51:38;;;;;;;3.88;1.52;;;;;;;12.40;65.06;95808.16;4910646;28;20171;-78
2021/12/27 08:54:04;;;;;;;1.67;1.30;;;;;;;12.31;65.20;95805.44;4894979;28;20214;-79
2021/12/27 08:56:31;;;;;;;3.15;1.60;;;;;;;12.32;65.06;95801.78;4910272;28;20201;-79
2021/12/27 08:58:56;;;;;;;2.78;1.30;;;;;;;12.40;65.13;95802.91;4879110;28;20632;-78
2021/12/27 09:01:22;;;;;;;2.22;1.30;;;;;;;12.39;64.96;95790.94;4928054;28;20239;-79
2021/12/27 09:03:47;;;;;;;3.30;1.42;;;;;;;12.36;65.43;95781.84;4878521;28;20288;-79
2021/12/27 09:06:14;;;;;;;2.17;1.48;;;;;;;12.42;65.72;95779.91;4909602;28;20632;-78
2021/12/27 09:08:40;;;;;;;3.35;1.85;;;;;;;12.53;65.16;95776.06;4880199;28;20273;-78
2021/12/27 09:11:05;;;;;;;2.33;1.40;;;;;;;12.72;64.88;95777.78;4908806;28;20249;-79
2021/12/27 09:13:32;;;;;;;1.50;1.20;;;;;;;12.73;65.67;95774.09;4928484;28;20162;-79
2021/12/27 09:16:01;;;;;;;2.00;1.42;;;;;;;12.89;65.01;95774.56;4876302;28;20688;-79
2021/12/27 09:18:28;;;;;;;3.50;1.52;;;;;;;12.99;64.89;95771.75;4878935;28;20197;-79
2021/12/27 09:20:53;;;;;;;1.50;1.15;;;;;;;12.93;64.18;95775.53;4909054;28;20352;-79
2021/12/27 09:23:18;;;;;;;1.58;1.40;;;;;;;12.99;64.39;95769.13;4909907;28;20261;-78
2021/12/27 09:25:45;;;;;;;2.67;1.45;;;;;;;13.12;64.41;95772.75;4894111;28;20107;-79
2021/12/27 09:28:11;;;;;;;1.75;1.00;;;;;;;13.15;64.24;95781.88;4883775;28;20201;-78
2021/12/27 09:30:37;;;;;;;2.53;1.20;;;;;;;13.00;64.44;95762.06;4915279;28;20196;-79
2021/12/27 09:33:03;;;;;;;1.98;1.40;;;;;;;13.17;64.51;95780.50;4900952;28;20312;-78
2021/12/27 09:35:29;;;;;;;1.65;1.30;;;;;;;13.26;64.51;95770.09;4910448;28;20213;-79
2021/12/27 09:37:54;;;;;;;1.88;1.65;;;;;;;13.34;64.60;95776.50;4893872;28;20178;-79
2021/12/27 09:40:20;;;;;;;1.85;1.30;;;;;;;13.34;64.45;95777.28;4893510;28;20103;-79
2021/12/27 09:42:45;;;;;;;1.55;1.35;;;;;;;13.37;64.73;95765.47;4893503;28;20561;-79
2021/12/27 09:45:11;;;;;;;2.40;1.40;;;;;;;13.38;64.63;95756.53;4878316;28;20198;-78
2021/12/27 09:47:37;;;;;;;2.03;1.20;;;;;;;13.40;64.61;95755.19;4894022;28;20213;-78
2021/12/27 09:50:05;;;;;;;2.03;1.45;;;;;;;13.18;64.20;95745.47;4908836;28;20225;-79
2021/12/27 09:52:32;;;;;;;1.40;1.30;;;;;;;13.34;64.84;95745.16;4909512;28;20164;-79
2021/12/27 09:54:58;;;;;;;1.83;1.27;;;;;;;13.56;64.17;95737.28;4909877;28;20259;-78
2021/12/27 09:57:23;;;;;;;2.65;1.00;;;;;;;13.53;64.06;95740.50;4893851;28;20108;-79
2021/12/27 09:59:48;;;;;;;1.27;1.00;;;;;;;13.55;64.66;95740.97;4894101;28;20252;-78
2021/12/27 10:02:14;;;;;;;1.30;1.20;;;;;;;13.60;64.20;95743.47;4909114;28;20257;-78
2021/12/27 10:04:39;;;;;;;1.60;1.00;;;;;;;13.64;64.37;95744.41;4893165;28;20564;-79
2021/12/27 10:07:05;;;;;;;2.15;1.20;;;;;;;13.70;63.76;95742.44;4909335;28;20258;-79
2021/12/27 10:09:33;;;;;;;1.40;1.30;;;;;;;13.75;63.86;95738.94;4909387;28;20408;-79
2021/12/27 10:12:03;;;;;;;2.17;1.77;;;;;;;13.77;64.05;95739.41;4877820;28;20258;-79
2021/12/27 10:14:28;;;;;;;2.40;1.17;;;;;;;13.86;63.67;95732.38;4909213;28;20237;-79
2021/12/27 10:17:00;;;;;;;1.13;1.02;;;;;;;13.92;63.37;95728.56;4894075;28;20381;-79
2021/12/27 10:19:26;;;;;;;1.83;1.20;;;;;;;13.88;63.30;95729.44;4877851;28;20622;-79
2021/12/27 10:21:53;;;;;;;1.55;1.15;;;;;;;13.68;62.96;95721.81;4909504;28;20099;-79
2021/12/27 10:24:21;;;;;;;2.50;1.20;;;;;;;13.72;63.49;95721.22;4878162;28;20202;-79
2021/12/27 10:26:52;;;;;;;1.50;1.00;;;;;;;13.70;63.22;95712.91;4909966;28;20365;-79
2021/12/27 10:29:22;;;;;;;1.65;1.10;;;;;;;13.74;62.31;95708.63;4891212;28;20205;-79
2021/12/27 10:32:09;;;;;;;1.38;0.85;;;;;;;13.46;63.09;95716.63;4909058;28;20652;-79
2021/12/27 10:34:42;;;;;;;3.08;1.05;;;;;;;13.47;61.92;95713.69;4927153;28;20251;-79
2021/12/27 10:37:17;;;;;;;2.47;1.10;;;;;;;13.39;62.84;95716.28;4888013;28;20283;-78
2021/12/27 10:39:50;;;;;;;2.35;1.10;;;;;;;13.48;62.56;95711.84;4892751;28;20213;-79
2021/12/27 10:42:21;;;;;;;1.42;1.10;;;;;;;13.45;63.04;95705.41;4903998;28;20370;-79
2021/12/27 10:44:49;;;;;;;1.83;1.40;;;;;;;13.52;63.30;95710.19;4908975;28;20206;-79
2021/12/27 10:47:26;;;;;;;1.10;1.00;;;;;;;13.33;63.35;95707.00;4876666;28;20684;-79
2021/12/27 10:49:53;;;;;;;2.75;1.02;;;;;;;13.37;63.36;95700.13;4909901;28;20195;-79
2021/12/27 10:52:19;;;;;;;2.50;1.13;;;;;;;13.60;63.70;95708.69;4909050;28;20591;-79
2021/12/27 10:54:44;;;;;;;1.00;0.90;;;;;;;13.65;63.44;95706.72;4909235;28;20225;-79
2021/12/27 10:57:10;;;;;;;2.80;1.30;;;;;;;13.60;63.42;95711.31;4892947;28;20229;-79
2021/12/27 10:59:35;;;;;;;2.08;1.05;;;;;;;13.68;63.66;95710.59;4893440;28;20640;-79
2021/12/27 11:02:10;;;;;;;1.63;0.93;;;;;;;13.47;63.98;95703.25;4908598;28;20249;-79
2021/12/27 11:04:36;;;;;;;1.60;1.20;;;;;;;13.73;63.34;95704.47;4893841;28;20270;-79
2021/12/27 11:07:02;;;;;;;1.52;1.05;;;;;;;13.68;63.64;95705.34;4892700;28;21799;-79
2021/12/27 11:09:28;;;;;;;0.95;0.75;;;;;;;13.74;63.90;95700.75;4921745;28;20324;-79
2021/12/27 11:11:54;;;;;;;1.63;1.10;;;;;;;13.79;63.22;95698.78;4912390;28;20202;-79
2021/12/27 11:14:19;;;;;;;1.73;0.85;;;;;;;13.79;62.31;95703.25;4881048;28;20213;-79
2021/12/27 11:16:44;;;;;;;1.58;1.10;;;;;;;13.74;63.10;95695.53;4896560;28;20245;-79
2021/12/27 11:19:10;;;;;;;1.23;0.80;;;;;;;13.79;62.89;95704.00;4896161;28;20285;-79
2021/12/27 11:21:41;;;;;;;1.80;0.93;;;;;;;13.66;62.56;95710.13;4912283;28;20100;-79
2021/12/27 11:24:07;;;;;;;1.63;1.23;;;;;;;13.78;62.67;95707.72;4910332;28;20235;-79
2021/12/27 11:26:36;;;;;;;1.77;0.80;;;;;;;13.75;61.87;95710.16;4896273;28;20249;-79
2021/12/27 11:29:28;;;;;;;1.75;1.00;;;;;;;13.50;62.43;95712.31;4880521;28;20179;-79
2021/12/27 11:32:16;;;;;;;2.42;1.20;;;;;;;13.25;62.57;95703.22;4925019;28;20236;-79